createdAt,value
2023-03-18T00:00:35.669Z,8.98
2023-03-18T00:03:01.920Z,8.93
2023-03-18T00:05:28.202Z,8.88
2023-03-18T00:07:54.418Z,8.84
2023-03-18T00:10:20.656Z,8.78
2023-03-18T00:12:46.867Z,8.76
2023-03-18T00:15:13.524Z,8.71
2023-03-18T00:17:39.719Z,8.62
2023-03-18T00:20:06.046Z,8.57
2023-03-18T00:22:33.165Z,8.51
2023-03-18T00:24:59.392Z,8.46
2023-03-18T00:27:25.592Z,8.37
2023-03-18T00:29:51.812Z,8.33
2023-03-18T00:32:18.019Z,8.35
2023-03-18T00:34:44.238Z,8.29
2023-03-18T00:37:10.487Z,8.28
2023-03-18T00:39:36.736Z,8.27
2023-03-18T00:42:02.958Z,8.27
2023-03-18T00:44:29.154Z,8.23
2023-03-18T00:46:55.440Z,8.19
2023-03-18T00:49:21.711Z,8.18
2023-03-18T00:51:47.926Z,8.17
2023-03-18T00:54:14.124Z,8.18
2023-03-18T00:56:40.358Z,8.20
2023-03-18T00:59:06.839Z,8.20
2023-03-18T01:01:33.077Z,8.24
2023-03-18T01:03:59.698Z,8.30
2023-03-18T01:06:26.659Z,8.36
2023-03-18T01:08:52.900Z,8.36
2023-03-18T01:11:19.140Z,8.40
2023-03-18T01:13:45.384Z,8.38
2023-03-18T01:16:11.674Z,8.36
2023-03-18T01:18:37.910Z,8.37
2023-03-18T01:21:04.258Z,8.38
2023-03-18T01:23:30.477Z,8.43
2023-03-18T01:25:56.954Z,8.37
2023-03-18T01:28:23.169Z,8.30
2023-03-18T01:30:49.395Z,8.24
2023-03-18T01:33:15.633Z,8.25
2023-03-18T01:35:41.866Z,8.25
2023-03-18T01:38:08.102Z,8.20
2023-03-18T01:40:35.027Z,8.19
2023-03-18T01:43:11.679Z,8.19
2023-03-18T01:45:37.952Z,8.14
2023-03-18T01:48:04.206Z,8.09
2023-03-18T01:50:31.569Z,8.07
2023-03-18T01:52:59.225Z,8.10
2023-03-18T01:55:26.499Z,8.12
2023-03-18T01:57:52.695Z,8.10
2023-03-18T02:00:19.002Z,8.18
2023-03-18T02:02:45.992Z,8.12
2023-03-18T02:05:14.523Z,8.08
2023-03-18T02:07:41.166Z,8.04
2023-03-18T02:12:35.127Z,8.06
2023-03-18T02:15:01.887Z,8.06
2023-03-18T02:17:29.733Z,8.05
2023-03-18T02:19:58.905Z,8.06
2023-03-18T02:22:32.304Z,8.05
2023-03-18T02:25:09.937Z,8.04
2023-03-18T02:27:37.278Z,8.08
2023-03-18T02:30:07.794Z,8.03
2023-03-18T02:32:34.059Z,8.10
2023-03-18T02:35:00.949Z,8.13
2023-03-18T02:37:27.175Z,8.06
2023-03-18T02:39:53.387Z,8.04
2023-03-18T02:42:29.366Z,8.01
2023-03-18T02:44:55.580Z,7.98
2023-03-18T02:47:21.824Z,7.96
2023-03-18T02:49:48.048Z,8.00
2023-03-18T02:52:14.255Z,7.95
2023-03-18T02:54:40.467Z,7.93
2023-03-18T02:57:06.707Z,7.93
2023-03-18T02:59:32.913Z,7.87
2023-03-18T03:01:59.123Z,7.77
2023-03-18T03:04:25.352Z,7.75
2023-03-18T03:06:51.693Z,7.66
2023-03-18T03:09:17.903Z,7.60
2023-03-18T03:11:44.572Z,7.56
2023-03-18T03:14:10.827Z,7.53
2023-03-18T03:16:37.100Z,7.51
2023-03-18T03:19:03.631Z,7.50
2023-03-18T03:21:29.930Z,7.50
2023-03-18T03:23:56.145Z,7.46
2023-03-18T03:26:22.349Z,7.46
2023-03-18T03:28:48.556Z,7.46
2023-03-18T03:31:14.859Z,7.49
2023-03-18T03:33:41.216Z,7.51
2023-03-18T03:36:08.884Z,7.49
2023-03-18T03:38:35.134Z,7.46
2023-03-18T03:41:01.350Z,7.46
2023-03-18T03:43:27.563Z,7.44
2023-03-18T03:45:53.774Z,7.45
2023-03-18T03:48:19.991Z,7.46
2023-03-18T03:50:46.188Z,7.48
2023-03-18T03:53:12.395Z,7.47
2023-03-18T03:55:38.598Z,7.45
2023-03-18T03:58:04.836Z,7.47
2023-03-18T04:00:31.381Z,7.45
2023-03-18T04:02:57.850Z,7.46
2023-03-18T04:05:24.095Z,7.47
2023-03-18T04:07:50.377Z,7.50
2023-03-18T04:10:17.070Z,7.52
2023-03-18T04:12:43.303Z,7.51
2023-03-18T04:15:09.640Z,7.49
2023-03-18T04:17:35.856Z,7.50
2023-03-18T04:20:02.087Z,7.58
2023-03-18T04:22:28.311Z,7.67
2023-03-18T04:24:56.244Z,7.65
2023-03-18T04:27:22.460Z,7.63
2023-03-18T04:29:48.698Z,7.60
2023-03-18T04:32:14.916Z,7.60
2023-03-18T04:34:41.107Z,7.64
2023-03-18T04:37:07.318Z,7.67
2023-03-18T04:39:33.530Z,7.76
2023-03-18T04:41:59.762Z,7.77
2023-03-18T04:44:25.989Z,7.77
2023-03-18T04:46:52.437Z,7.74
2023-03-18T04:49:18.670Z,7.75
2023-03-18T04:51:45.048Z,7.69
2023-03-18T04:54:11.268Z,7.69
2023-03-18T04:56:37.477Z,7.66
2023-03-18T04:59:03.699Z,7.67
2023-03-18T05:01:29.925Z,7.70
2023-03-18T05:03:56.205Z,7.65
2023-03-18T05:06:23.471Z,7.72
2023-03-18T05:08:49.694Z,7.71
2023-03-18T05:11:15.893Z,7.69
2023-03-18T05:13:42.141Z,7.70
2023-03-18T05:16:08.370Z,7.65
2023-03-18T05:18:34.617Z,7.63
2023-03-18T05:21:00.827Z,7.63
2023-03-18T05:23:27.060Z,7.65
2023-03-18T05:25:53.272Z,7.63
2023-03-18T05:28:19.491Z,7.65
2023-03-18T05:30:45.698Z,7.67
2023-03-18T05:33:12.044Z,7.71
2023-03-18T05:35:38.318Z,7.64
2023-03-18T05:38:04.643Z,7.72
2023-03-18T05:40:30.847Z,7.71
2023-03-18T05:42:57.069Z,7.69
2023-03-18T05:45:23.457Z,7.73
2023-03-18T05:47:49.702Z,7.72
2023-03-18T05:50:27.190Z,7.71
2023-03-18T05:52:53.408Z,7.73
2023-03-18T05:55:19.615Z,7.72
2023-03-18T05:57:45.806Z,7.68
2023-03-18T06:00:12.184Z,7.64
2023-03-18T06:02:38.429Z,7.64
2023-03-18T06:05:04.810Z,7.63
2023-03-18T06:07:31.010Z,7.62
2023-03-18T06:09:57.227Z,7.62
2023-03-18T06:12:23.426Z,7.66
2023-03-18T06:14:49.631Z,7.68
2023-03-18T06:17:16.157Z,7.67
2023-03-18T06:19:42.480Z,7.66
2023-03-18T06:22:08.720Z,7.72
2023-03-18T06:24:34.934Z,7.73
2023-03-18T06:27:01.145Z,7.76
2023-03-18T06:29:27.360Z,7.81
2023-03-18T06:31:53.558Z,7.88
2023-03-18T06:34:19.797Z,7.88
2023-03-18T06:36:46.042Z,7.91
2023-03-18T06:39:12.268Z,7.90
2023-03-18T06:41:38.489Z,7.89
2023-03-18T06:44:04.828Z,7.91
2023-03-18T06:46:31.228Z,7.93
2023-03-18T06:48:57.483Z,7.96
2023-03-18T06:51:23.691Z,7.98
2023-03-18T06:53:50.007Z,7.98
2023-03-18T06:56:16.229Z,7.98
2023-03-18T06:58:42.770Z,7.97
2023-03-18T07:01:09.006Z,8.02
2023-03-18T07:03:35.305Z,8.10
2023-03-18T07:06:01.516Z,8.15
2023-03-18T07:08:27.857Z,8.22
2023-03-18T07:10:55.690Z,8.29
2023-03-18T07:13:23.653Z,8.42
2023-03-18T07:15:49.930Z,8.48
2023-03-18T07:18:16.212Z,8.57
2023-03-18T07:20:42.430Z,8.63
2023-03-18T07:23:08.629Z,8.65
2023-03-18T07:25:34.846Z,8.77
2023-03-18T07:28:01.046Z,8.80
2023-03-18T07:30:27.546Z,8.81
2023-03-18T07:32:53.756Z,8.83
2023-03-18T07:35:20.083Z,8.90
2023-03-18T07:37:46.278Z,8.98
2023-03-18T07:40:12.548Z,9.03
2023-03-18T07:42:38.742Z,9.06
2023-03-18T07:45:05.835Z,9.05
2023-03-18T07:47:32.029Z,9.05
2023-03-18T07:49:58.239Z,9.02
2023-03-18T07:52:24.448Z,9.11
2023-03-18T07:54:50.650Z,9.07
2023-03-18T07:57:16.881Z,9.06
2023-03-18T07:59:43.115Z,9.06
2023-03-18T08:02:11.530Z,9.09
2023-03-18T08:04:37.801Z,9.18
2023-03-18T08:07:04.055Z,9.41
2023-03-18T08:09:30.269Z,9.83
2023-03-18T08:11:56.480Z,10.42
2023-03-18T08:14:22.725Z,10.82
2023-03-18T08:16:48.933Z,11.22
2023-03-18T08:19:15.144Z,11.75
2023-03-18T08:21:41.339Z,11.80
2023-03-18T08:24:07.549Z,11.60
2023-03-18T08:26:33.762Z,11.43
2023-03-18T08:29:00.030Z,11.38
2023-03-18T08:31:26.285Z,11.31
2023-03-18T08:33:52.525Z,11.17
2023-03-18T08:36:18.750Z,11.13
2023-03-18T08:38:44.963Z,11.12
2023-03-18T08:41:11.174Z,11.14
2023-03-18T08:43:39.036Z,11.18
2023-03-18T08:46:05.698Z,11.22
2023-03-18T08:48:31.967Z,11.22
2023-03-18T08:50:58.184Z,11.57
2023-03-18T08:53:24.379Z,12.12
2023-03-18T08:55:50.597Z,12.44
2023-03-18T08:58:16.799Z,12.69
2023-03-18T09:00:43.094Z,13.12
2023-03-18T09:03:09.369Z,13.37
2023-03-18T09:05:35.794Z,13.78
2023-03-18T09:08:02.035Z,14.21
2023-03-18T09:10:28.250Z,14.48
2023-03-18T09:12:54.476Z,14.14
2023-03-18T09:15:20.712Z,14.42
2023-03-18T09:18:03.784Z,14.48
2023-03-18T09:20:33.137Z,14.30
2023-03-18T09:22:59.416Z,14.29
2023-03-18T09:25:25.783Z,14.25
2023-03-18T09:27:51.994Z,13.84
2023-03-18T09:30:18.216Z,13.60
2023-03-18T09:32:44.448Z,13.43
2023-03-18T09:35:13.143Z,13.94
2023-03-18T09:37:39.591Z,14.25
2023-03-18T09:40:06.100Z,14.60
2023-03-18T09:42:46.893Z,15.01
2023-03-18T09:45:24.730Z,14.93
2023-03-18T09:47:54.616Z,14.99
2023-03-18T09:50:32.108Z,14.50
2023-03-18T09:53:01.422Z,14.65
2023-03-18T09:55:29.661Z,14.31
2023-03-18T09:57:57.196Z,14.03
2023-03-18T10:00:24.777Z,14.18
2023-03-18T10:02:52.825Z,14.29
2023-03-18T10:05:21.049Z,14.17
2023-03-18T10:07:47.334Z,14.33
2023-03-18T10:10:20.089Z,14.43
2023-03-18T10:12:48.040Z,14.21
2023-03-18T10:15:27.534Z,14.47
2023-03-18T10:18:02.552Z,14.66
2023-03-18T10:20:48.999Z,14.75
2023-03-18T10:23:22.209Z,14.76
2023-03-18T10:25:51.916Z,14.79
2023-03-18T10:28:24.387Z,14.34
2023-03-18T10:30:53.700Z,14.25
2023-03-18T10:33:26.965Z,14.00
2023-03-18T10:35:54.562Z,13.88
2023-03-18T10:38:24.227Z,13.75
2023-03-18T10:40:50.441Z,13.77
2023-03-18T10:43:17.529Z,13.61
2023-03-18T10:45:43.758Z,13.78
2023-03-18T10:48:33.280Z,13.93
2023-03-18T10:51:07.310Z,13.85
2023-03-18T10:54:05.850Z,13.91
2023-03-18T10:56:32.074Z,13.76
2023-03-18T10:58:58.296Z,13.68
2023-03-18T11:01:24.896Z,13.86
2023-03-18T11:04:00.657Z,13.84
2023-03-18T11:06:31.590Z,13.86
2023-03-18T11:09:17.123Z,13.94
2023-03-18T11:11:46.885Z,14.08
2023-03-18T11:14:13.855Z,13.96
2023-03-18T11:16:40.796Z,14.09
2023-03-18T11:19:25.648Z,14.14
2023-03-18T11:21:59.071Z,14.10
2023-03-18T11:24:26.113Z,14.10
2023-03-18T11:26:55.872Z,14.04
2023-03-18T11:29:25.949Z,14.05
2023-03-18T11:31:56.140Z,13.97
2023-03-18T11:34:22.338Z,14.16
2023-03-18T11:36:55.847Z,14.07
2023-03-18T11:39:23.166Z,13.83
2023-03-18T11:41:49.360Z,13.77
2023-03-18T11:44:19.299Z,13.69
2023-03-18T11:46:53.483Z,13.64
2023-03-18T11:49:20.333Z,13.64
2023-03-18T11:52:25.148Z,13.58
2023-03-18T11:54:54.172Z,13.54
2023-03-18T11:57:26.217Z,13.57
2023-03-18T11:59:52.372Z,13.49
2023-03-18T12:02:24.320Z,13.70
2023-03-18T12:05:09.489Z,14.12
2023-03-18T12:07:47.945Z,14.73
2023-03-18T12:10:14.086Z,15.17
2023-03-18T12:12:48.575Z,15.07
2023-03-18T12:15:19.458Z,14.93
2023-03-18T12:17:55.527Z,14.29
2023-03-18T12:20:40.105Z,14.34
2023-03-18T12:23:21.004Z,14.37
2023-03-18T12:25:57.722Z,14.55
2023-03-18T12:28:27.806Z,14.66
2023-03-18T12:30:56.159Z,14.77
2023-03-18T12:33:34.093Z,15.32
2023-03-18T12:36:06.733Z,15.41
2023-03-18T12:38:35.792Z,15.03
2023-03-18T12:41:23.040Z,14.94
2023-03-18T12:44:08.255Z,15.13
2023-03-18T12:46:42.728Z,15.45
2023-03-18T12:49:25.110Z,15.32
2023-03-18T12:52:08.238Z,15.43
2023-03-18T12:54:36.894Z,15.08
2023-03-18T12:57:04.244Z,15.25
2023-03-18T12:59:31.719Z,15.23
2023-03-18T13:02:02.449Z,15.20
2023-03-18T13:04:30.081Z,14.92
2023-03-18T13:07:02.864Z,15.17
2023-03-18T13:09:38.297Z,15.15
2023-03-18T13:12:06.006Z,15.23
2023-03-18T13:14:44.433Z,15.21
2023-03-18T13:17:13.993Z,15.34
2023-03-18T13:19:40.558Z,15.38
2023-03-18T13:22:22.563Z,15.23
2023-03-18T13:24:54.952Z,15.06
2023-03-18T13:27:25.572Z,15.09
2023-03-18T13:30:10.894Z,15.26
2023-03-18T13:32:48.135Z,15.36
2023-03-18T13:35:33.145Z,15.39
2023-03-18T13:38:14.866Z,15.48
2023-03-18T13:40:42.884Z,15.42
2023-03-18T13:43:11.728Z,15.12
2023-03-18T13:45:38.634Z,15.17
2023-03-18T13:48:07.955Z,15.07
2023-03-18T13:50:38.109Z,14.97
2023-03-18T13:53:04.339Z,15.02
2023-03-18T13:55:39.661Z,15.07
2023-03-18T13:58:05.809Z,15.28
2023-03-18T14:00:35.515Z,15.47
2023-03-18T14:03:20.523Z,15.59
2023-03-18T14:05:47.060Z,15.46
2023-03-18T14:08:32.011Z,15.52
2023-03-18T14:11:16.356Z,15.39
2023-03-18T14:13:49.754Z,15.33
2023-03-18T14:16:16.443Z,15.40
2023-03-18T14:18:42.671Z,15.16
2023-03-18T14:21:22.083Z,15.16
2023-03-18T14:23:55.331Z,15.39
2023-03-18T14:26:22.243Z,15.25
2023-03-18T14:28:49.575Z,15.08
2023-03-18T14:31:26.164Z,14.94
2023-03-18T14:33:57.284Z,15.02
2023-03-18T14:36:27.144Z,15.06
2023-03-18T14:39:00.287Z,15.04
2023-03-18T14:41:26.929Z,15.16
2023-03-18T14:43:54.611Z,15.40
2023-03-18T14:46:22.177Z,15.33
2023-03-18T14:48:54.472Z,15.29
2023-03-18T14:51:21.149Z,15.46
2023-03-18T14:53:48.945Z,15.19
2023-03-18T14:56:21.346Z,14.99
2023-03-18T14:58:47.554Z,15.02
2023-03-18T15:01:13.936Z,15.08
2023-03-18T15:03:41.095Z,15.15
2023-03-18T15:06:07.300Z,15.31
2023-03-18T15:08:47.814Z,15.36
2023-03-18T15:11:14.492Z,15.27
2023-03-18T15:13:43.845Z,15.21
2023-03-18T15:16:10.473Z,15.14
2023-03-18T15:18:47.332Z,15.14
2023-03-18T15:21:16.485Z,15.01
2023-03-18T15:23:55.557Z,14.74
2023-03-18T15:26:25.763Z,14.62
2023-03-18T15:28:58.862Z,14.57
2023-03-18T15:31:26.005Z,14.48
2023-03-18T15:33:56.025Z,14.37
2023-03-18T15:36:22.223Z,14.30
2023-03-18T15:38:48.851Z,14.16
2023-03-18T15:41:15.079Z,14.12
2023-03-18T15:43:41.862Z,14.06
2023-03-18T15:46:14.718Z,13.98
2023-03-18T15:48:45.218Z,13.96
2023-03-18T15:51:22.584Z,13.85
2023-03-18T15:53:50.676Z,13.90
2023-03-18T15:56:18.648Z,13.91
2023-03-18T15:58:44.910Z,13.87
2023-03-18T16:01:13.727Z,13.82
2023-03-18T16:03:39.994Z,13.76
2023-03-18T16:06:06.297Z,13.74
2023-03-18T16:08:32.529Z,13.67
2023-03-18T16:11:01.333Z,13.62
2023-03-18T16:13:28.040Z,13.52
2023-03-18T16:15:54.250Z,13.46
2023-03-18T16:18:20.559Z,13.41
2023-03-18T16:20:46.904Z,13.41
2023-03-18T16:23:13.668Z,13.43
2023-03-18T16:25:39.941Z,13.43
2023-03-18T16:28:06.160Z,13.43
2023-03-18T16:30:32.350Z,13.40
2023-03-18T16:32:58.688Z,13.39
2023-03-18T16:35:25.858Z,13.38
2023-03-18T16:37:52.115Z,13.36
2023-03-18T16:40:22.178Z,13.29
2023-03-18T16:42:48.524Z,13.18
2023-03-18T16:45:15.156Z,13.14
2023-03-18T16:47:41.365Z,13.04
2023-03-18T16:50:13.962Z,12.93
2023-03-18T16:52:40.178Z,12.82
2023-03-18T16:55:06.697Z,12.77
2023-03-18T16:57:32.909Z,12.74
2023-03-18T16:59:59.125Z,12.64
2023-03-18T17:02:32.251Z,12.52
2023-03-18T17:04:58.496Z,12.49
2023-03-18T17:07:24.704Z,12.40
2023-03-18T17:09:50.916Z,12.28
2023-03-18T17:12:17.125Z,12.25
2023-03-18T17:14:43.669Z,12.20
2023-03-18T17:17:21.864Z,12.18
2023-03-18T17:19:48.071Z,12.11
2023-03-18T17:22:24.397Z,12.06
2023-03-18T17:24:50.618Z,12.17
2023-03-18T17:27:20.410Z,12.20
2023-03-18T17:29:46.629Z,12.15
2023-03-18T17:32:12.850Z,11.81
2023-03-18T17:34:39.074Z,11.79
2023-03-18T17:37:05.274Z,11.72
2023-03-18T17:39:31.493Z,11.64
2023-03-18T17:41:57.716Z,11.54
2023-03-18T17:44:25.770Z,11.54
2023-03-18T17:46:52.846Z,11.64
2023-03-18T17:49:20.064Z,11.70
2023-03-18T17:51:46.355Z,11.70
2023-03-18T17:54:18.042Z,11.60
2023-03-18T17:56:44.433Z,11.70
2023-03-18T17:59:14.708Z,11.67
2023-03-18T18:01:40.967Z,11.22
2023-03-18T18:04:09.482Z,11.22
2023-03-18T18:06:35.696Z,10.97
2023-03-18T18:09:01.910Z,11.07
2023-03-18T18:11:28.916Z,11.04
2023-03-18T18:13:55.811Z,11.06
2023-03-18T18:16:22.068Z,11.28
2023-03-18T18:18:49.873Z,11.31
2023-03-18T18:21:17.122Z,11.25
2023-03-18T18:23:43.412Z,11.13
2023-03-18T18:26:11.001Z,10.93
2023-03-18T18:28:37.919Z,10.88
2023-03-18T18:31:04.723Z,10.87
2023-03-18T18:33:31.384Z,10.96
2023-03-18T18:35:57.663Z,11.00
2023-03-18T18:38:23.913Z,10.97
2023-03-18T18:40:50.128Z,10.94
2023-03-18T18:43:16.347Z,10.95
2023-03-18T18:45:42.564Z,10.92
2023-03-18T18:48:16.142Z,10.85
2023-03-18T18:50:42.504Z,10.73
2023-03-18T18:53:31.961Z,10.71
2023-03-18T18:55:59.038Z,10.65
2023-03-18T18:58:28.977Z,10.64
2023-03-18T19:00:55.201Z,10.62
2023-03-18T19:03:22.194Z,10.54
2023-03-18T19:05:49.101Z,10.47
2023-03-18T19:08:22.171Z,10.47
2023-03-18T19:10:48.835Z,10.55
2023-03-18T19:13:15.059Z,10.53
2023-03-18T19:15:41.282Z,10.45
2023-03-18T19:18:13.095Z,10.39
2023-03-18T19:20:39.303Z,10.36
2023-03-18T19:23:08.611Z,10.20
2023-03-18T19:25:35.135Z,10.28
2023-03-18T19:28:01.525Z,10.30
2023-03-18T19:30:27.752Z,10.19
2023-03-18T19:32:53.994Z,10.17
2023-03-18T19:35:20.231Z,10.08
2023-03-18T19:37:46.829Z,10.07
2023-03-18T19:40:23.155Z,10.08
2023-03-18T19:42:49.369Z,10.03
2023-03-18T19:45:15.604Z,10.00
2023-03-18T19:47:41.829Z,9.96
2023-03-18T19:50:14.910Z,9.95
2023-03-18T19:52:41.137Z,9.92
2023-03-18T19:55:08.730Z,9.88
2023-03-18T19:57:35.255Z,9.85
2023-03-18T20:00:01.479Z,9.84
2023-03-18T20:02:28.760Z,9.80
2023-03-18T20:04:55.656Z,9.79
2023-03-18T20:07:22.562Z,9.61
2023-03-18T20:09:48.857Z,9.65
2023-03-18T20:12:18.626Z,9.61
2023-03-18T20:14:44.827Z,9.38
2023-03-18T20:17:19.393Z,9.39
2023-03-18T20:19:45.613Z,9.28
2023-03-18T20:22:12.090Z,9.41
2023-03-18T20:24:38.307Z,9.23
2023-03-18T20:27:04.533Z,8.85
2023-03-18T20:29:30.727Z,8.99
2023-03-18T20:31:57.007Z,9.22
2023-03-18T20:34:23.239Z,9.22
2023-03-18T20:36:49.446Z,9.26
2023-03-18T20:39:19.240Z,9.29
2023-03-18T20:41:45.464Z,9.32
2023-03-18T20:44:12.197Z,9.28
2023-03-18T20:46:38.410Z,9.21
2023-03-18T20:49:04.608Z,9.12
2023-03-18T20:51:31.243Z,8.91
2023-03-18T20:53:57.464Z,8.94
2023-03-18T20:56:23.727Z,9.02
2023-03-18T20:58:49.963Z,9.05
2023-03-18T21:01:16.183Z,8.87
2023-03-18T21:03:42.442Z,8.52
2023-03-18T21:06:09.617Z,8.51
2023-03-18T21:08:35.838Z,8.65
2023-03-18T21:11:02.450Z,8.81
2023-03-18T21:13:29.583Z,8.92
2023-03-18T21:15:56.079Z,8.93
2023-03-18T21:18:22.300Z,8.88
2023-03-18T21:20:48.498Z,8.84
2023-03-18T21:23:22.006Z,8.76
2023-03-18T21:25:48.242Z,8.73
2023-03-18T21:28:14.830Z,8.65
2023-03-18T21:30:41.373Z,8.63
2023-03-18T21:33:16.834Z,8.59
2023-03-18T21:35:43.092Z,8.56
2023-03-18T21:38:09.350Z,8.51
2023-03-18T21:40:35.554Z,8.51
2023-03-18T21:43:01.762Z,8.50
2023-03-18T21:45:27.974Z,8.46
2023-03-18T21:47:54.196Z,8.45
2023-03-18T21:50:24.335Z,8.46
2023-03-18T21:52:50.595Z,8.41
2023-03-18T21:55:16.824Z,8.31
2023-03-18T21:57:43.076Z,8.28
2023-03-18T22:00:16.749Z,8.27
2023-03-18T22:02:42.958Z,8.26
2023-03-18T22:05:19.730Z,8.22
2023-03-18T22:07:45.974Z,8.20
2023-03-18T22:10:15.760Z,8.18
2023-03-18T22:12:41.987Z,8.14
2023-03-18T22:15:23.136Z,8.12
2023-03-18T22:17:49.400Z,8.09
2023-03-18T22:20:15.636Z,8.07
2023-03-18T22:22:41.846Z,8.06
2023-03-18T22:25:12.573Z,8.05
2023-03-18T22:27:38.819Z,8.00
2023-03-18T22:30:05.301Z,7.98
2023-03-18T22:32:39.029Z,8.00
2023-03-18T22:35:06.010Z,7.92
2023-03-18T22:37:32.223Z,7.90
2023-03-18T22:40:00.838Z,7.82
2023-03-18T22:42:27.275Z,7.73
2023-03-18T22:44:53.505Z,7.75
2023-03-18T22:47:20.652Z,7.68
2023-03-18T22:49:46.895Z,7.63
2023-03-18T22:52:19.179Z,7.58
2023-03-18T22:54:45.387Z,7.57
2023-03-18T22:57:16.515Z,7.57
2023-03-18T22:59:42.730Z,7.60
2023-03-18T23:02:12.476Z,7.56
2023-03-18T23:04:38.700Z,7.52
2023-03-18T23:07:04.943Z,7.34
2023-03-18T23:09:31.188Z,6.90
2023-03-18T23:11:57.390Z,7.08
2023-03-18T23:14:23.608Z,7.19
2023-03-18T23:16:49.798Z,7.21
2023-03-18T23:19:16.020Z,7.26
2023-03-18T23:21:42.213Z,6.92
2023-03-18T23:24:08.994Z,6.97
2023-03-18T23:26:35.230Z,7.18
2023-03-18T23:29:01.458Z,6.71
2023-03-18T23:31:27.712Z,6.56
2023-03-18T23:33:53.948Z,6.81
2023-03-18T23:36:20.160Z,6.92
2023-03-18T23:38:46.402Z,6.98
2023-03-18T23:41:12.621Z,6.97
2023-03-18T23:43:38.824Z,6.97
2023-03-18T23:46:05.149Z,6.97
2023-03-18T23:48:31.419Z,6.96
2023-03-18T23:50:57.635Z,6.90
2023-03-18T23:53:23.855Z,6.96
2023-03-18T23:55:50.305Z,6.96
2023-03-18T23:58:16.713Z,6.92
